sensor_id;sensor_type;location;lat;lon;timestamp;temperature;humidity
53962;DHT22;39868;53.398;6.564;2024-02-28T00:00:52;5.90;86.00
53962;DHT22;39868;53.398;6.564;2024-02-28T00:03:20;6.00;86.20
53962;DHT22;39868;53.398;6.564;2024-02-28T00:05:49;5.90;86.30
53962;DHT22;39868;53.398;6.564;2024-02-28T00:08:16;6.00;86.30
53962;DHT22;39868;53.398;6.564;2024-02-28T00:10:44;5.90;86.20
53962;DHT22;39868;53.398;6.564;2024-02-28T00:13:11;5.90;86.10
53962;DHT22;39868;53.398;6.564;2024-02-28T00:15:38;6.00;86.20
53962;DHT22;39868;53.398;6.564;2024-02-28T00:18:06;5.90;86.20
53962;DHT22;39868;53.398;6.564;2024-02-28T00:20:33;5.90;86.30
53962;DHT22;39868;53.398;6.564;2024-02-28T00:23:00;5.90;86.20
53962;DHT22;39868;53.398;6.564;2024-02-28T00:25:27;5.90;86.30
53962;DHT22;39868;53.398;6.564;2024-02-28T00:27:55;5.90;86.30
53962;DHT22;39868;53.398;6.564;2024-02-28T00:30:22;5.90;86.40
53962;DHT22;39868;53.398;6.564;2024-02-28T00:32:49;6.00;86.30
53962;DHT22;39868;53.398;6.564;2024-02-28T00:35:16;6.00;86.40
53962;DHT22;39868;53.398;6.564;2024-02-28T00:37:44;6.00;86.50
53962;DHT22;39868;53.398;6.564;2024-02-28T00:40:11;6.00;86.60
53962;DHT22;39868;53.398;6.564;2024-02-28T00:42:39;6.00;86.50
53962;DHT22;39868;53.398;6.564;2024-02-28T00:45:08;6.00;86.40
53962;DHT22;39868;53.398;6.564;2024-02-28T00:47:36;6.00;86.50
53962;DHT22;39868;53.398;6.564;2024-02-28T00:50:05;6.00;86.50
53962;DHT22;39868;53.398;6.564;2024-02-28T00:52:32;6.00;86.60
53962;DHT22;39868;53.398;6.564;2024-02-28T00:54:59;6.00;86.60
53962;DHT22;39868;53.398;6.564;2024-02-28T00:57:26;6.00;86.70
53962;DHT22;39868;53.398;6.564;2024-02-28T00:59:54;6.00;86.80
53962;DHT22;39868;53.398;6.564;2024-02-28T01:02:21;5.90;86.80
53962;DHT22;39868;53.398;6.564;2024-02-28T01:04:49;5.90;86.80
53962;DHT22;39868;53.398;6.564;2024-02-28T01:07:16;5.90;86.90
53962;DHT22;39868;53.398;6.564;2024-02-28T01:09:44;5.90;86.90
53962;DHT22;39868;53.398;6.564;2024-02-28T01:12:11;5.90;86.90
53962;DHT22;39868;53.398;6.564;2024-02-28T01:14:39;5.90;87.00
53962;DHT22;39868;53.398;6.564;2024-02-28T01:17:06;5.90;87.60
53962;DHT22;39868;53.398;6.564;2024-02-28T01:19:33;5.90;87.00
53962;DHT22;39868;53.398;6.564;2024-02-28T01:22:00;5.90;87.00
53962;DHT22;39868;53.398;6.564;2024-02-28T01:24:27;5.90;87.00
53962;DHT22;39868;53.398;6.564;2024-02-28T01:26:55;5.90;87.10
53962;DHT22;39868;53.398;6.564;2024-02-28T01:29:22;5.90;87.10
53962;DHT22;39868;53.398;6.564;2024-02-28T01:31:49;5.90;87.10
53962;DHT22;39868;53.398;6.564;2024-02-28T01:34:16;5.90;87.00
53962;DHT22;39868;53.398;6.564;2024-02-28T01:36:43;5.90;87.10
53962;DHT22;39868;53.398;6.564;2024-02-28T01:39:10;5.90;87.10
53962;DHT22;39868;53.398;6.564;2024-02-28T01:41:38;5.90;87.10
53962;DHT22;39868;53.398;6.564;2024-02-28T01:44:05;5.90;87.20
53962;DHT22;39868;53.398;6.564;2024-02-28T01:46:32;5.90;87.20
53962;DHT22;39868;53.398;6.564;2024-02-28T01:48:59;5.90;87.20
53962;DHT22;39868;53.398;6.564;2024-02-28T01:51:27;5.90;87.20
53962;DHT22;39868;53.398;6.564;2024-02-28T01:53:55;5.90;87.20
53962;DHT22;39868;53.398;6.564;2024-02-28T01:56:23;5.90;87.30
53962;DHT22;39868;53.398;6.564;2024-02-28T01:58:54;5.90;87.30
53962;DHT22;39868;53.398;6.564;2024-02-28T02:01:22;5.90;87.40
53962;DHT22;39868;53.398;6.564;2024-02-28T02:03:52;5.90;87.40
53962;DHT22;39868;53.398;6.564;2024-02-28T02:06:19;5.90;87.40
53962;DHT22;39868;53.398;6.564;2024-02-28T02:08:47;5.90;87.40
53962;DHT22;39868;53.398;6.564;2024-02-28T02:11:16;5.90;87.40
53962;DHT22;39868;53.398;6.564;2024-02-28T02:13:52;6.00;87.50
53962;DHT22;39868;53.398;6.564;2024-02-28T02:16:20;6.00;87.70
53962;DHT22;39868;53.398;6.564;2024-02-28T02:18:54;5.90;87.50
53962;DHT22;39868;53.398;6.564;2024-02-28T02:21:34;5.90;87.60
53962;DHT22;39868;53.398;6.564;2024-02-28T02:24:01;6.00;87.70
53962;DHT22;39868;53.398;6.564;2024-02-28T02:26:29;6.00;87.80
53962;DHT22;39868;53.398;6.564;2024-02-28T02:28:56;6.00;87.80
53962;DHT22;39868;53.398;6.564;2024-02-28T02:31:23;6.00;87.80
53962;DHT22;39868;53.398;6.564;2024-02-28T02:33:50;6.00;87.80
53962;DHT22;39868;53.398;6.564;2024-02-28T02:36:17;6.00;87.90
53962;DHT22;39868;53.398;6.564;2024-02-28T02:38:45;6.00;87.90
53962;DHT22;39868;53.398;6.564;2024-02-28T02:41:12;6.00;87.80
53962;DHT22;39868;53.398;6.564;2024-02-28T02:43:39;6.00;87.80
53962;DHT22;39868;53.398;6.564;2024-02-28T02:46:06;6.00;87.90
53962;DHT22;39868;53.398;6.564;2024-02-28T02:48:34;6.00;87.90
53962;DHT22;39868;53.398;6.564;2024-02-28T02:51:01;6.00;87.80
53962;DHT22;39868;53.398;6.564;2024-02-28T02:53:28;6.00;87.90
53962;DHT22;39868;53.398;6.564;2024-02-28T02:55:55;6.00;87.90
53962;DHT22;39868;53.398;6.564;2024-02-28T02:58:22;6.00;88.00
53962;DHT22;39868;53.398;6.564;2024-02-28T03:00:50;6.00;88.00
53962;DHT22;39868;53.398;6.564;2024-02-28T03:03:17;6.00;87.80
53962;DHT22;39868;53.398;6.564;2024-02-28T03:05:44;6.00;87.90
53962;DHT22;39868;53.398;6.564;2024-02-28T03:08:12;6.10;87.90
53962;DHT22;39868;53.398;6.564;2024-02-28T03:10:39;6.10;88.00
53962;DHT22;39868;53.398;6.564;2024-02-28T03:13:06;6.10;88.00
53962;DHT22;39868;53.398;6.564;2024-02-28T03:15:34;6.10;88.00
53962;DHT22;39868;53.398;6.564;2024-02-28T03:18:01;6.10;88.00
53962;DHT22;39868;53.398;6.564;2024-02-28T03:20:29;6.10;88.00
53962;DHT22;39868;53.398;6.564;2024-02-28T03:22:56;6.10;87.90
53962;DHT22;39868;53.398;6.564;2024-02-28T03:25:23;6.10;88.00
53962;DHT22;39868;53.398;6.564;2024-02-28T03:27:50;6.10;88.00
53962;DHT22;39868;53.398;6.564;2024-02-28T03:30:18;6.10;88.00
53962;DHT22;39868;53.398;6.564;2024-02-28T03:32:46;6.10;88.00
53962;DHT22;39868;53.398;6.564;2024-02-28T03:35:13;6.10;88.00
53962;DHT22;39868;53.398;6.564;2024-02-28T03:37:40;6.10;88.10
53962;DHT22;39868;53.398;6.564;2024-02-28T03:40:08;6.10;88.00
53962;DHT22;39868;53.398;6.564;2024-02-28T03:42:35;6.10;88.10
53962;DHT22;39868;53.398;6.564;2024-02-28T03:45:03;6.20;88.70
53962;DHT22;39868;53.398;6.564;2024-02-28T03:47:30;6.10;88.10
53962;DHT22;39868;53.398;6.564;2024-02-28T03:49:57;6.20;88.20
53962;DHT22;39868;53.398;6.564;2024-02-28T03:52:26;6.10;88.00
53962;DHT22;39868;53.398;6.564;2024-02-28T03:54:53;6.20;88.20
53962;DHT22;39868;53.398;6.564;2024-02-28T03:57:20;6.10;88.00
53962;DHT22;39868;53.398;6.564;2024-02-28T03:59:48;6.20;88.10
53962;DHT22;39868;53.398;6.564;2024-02-28T04:02:15;6.10;88.60
53962;DHT22;39868;53.398;6.564;2024-02-28T04:04:42;6.10;88.00
53962;DHT22;39868;53.398;6.564;2024-02-28T04:07:10;6.10;88.00
53962;DHT22;39868;53.398;6.564;2024-02-28T04:09:37;6.20;88.20
53962;DHT22;39868;53.398;6.564;2024-02-28T04:12:05;6.20;88.10
53962;DHT22;39868;53.398;6.564;2024-02-28T04:14:32;6.20;88.10
53962;DHT22;39868;53.398;6.564;2024-02-28T04:16:59;6.20;88.10
53962;DHT22;39868;53.398;6.564;2024-02-28T04:19:26;6.20;88.10
53962;DHT22;39868;53.398;6.564;2024-02-28T04:21:53;6.10;88.00
53962;DHT22;39868;53.398;6.564;2024-02-28T04:24:21;6.10;88.00
53962;DHT22;39868;53.398;6.564;2024-02-28T04:26:48;6.20;88.20
53962;DHT22;39868;53.398;6.564;2024-02-28T04:29:15;6.20;88.10
53962;DHT22;39868;53.398;6.564;2024-02-28T04:31:42;6.20;88.10
53962;DHT22;39868;53.398;6.564;2024-02-28T04:34:09;6.10;88.00
53962;DHT22;39868;53.398;6.564;2024-02-28T04:36:36;6.20;88.20
53962;DHT22;39868;53.398;6.564;2024-02-28T04:39:04;6.20;88.20
53962;DHT22;39868;53.398;6.564;2024-02-28T04:41:33;6.20;88.20
53962;DHT22;39868;53.398;6.564;2024-02-28T04:44:01;6.20;88.30
53962;DHT22;39868;53.398;6.564;2024-02-28T04:46:28;6.20;88.30
53962;DHT22;39868;53.398;6.564;2024-02-28T04:48:55;6.20;88.30
53962;DHT22;39868;53.398;6.564;2024-02-28T04:51:22;6.20;88.30
53962;DHT22;39868;53.398;6.564;2024-02-28T04:53:49;6.20;88.40
53962;DHT22;39868;53.398;6.564;2024-02-28T04:56:17;6.20;88.40
53962;DHT22;39868;53.398;6.564;2024-02-28T04:58:44;6.30;88.50
53962;DHT22;39868;53.398;6.564;2024-02-28T05:01:11;6.30;88.50
53962;DHT22;39868;53.398;6.564;2024-02-28T05:03:40;6.30;88.60
53962;DHT22;39868;53.398;6.564;2024-02-28T05:06:08;6.30;88.50
53962;DHT22;39868;53.398;6.564;2024-02-28T05:08:37;6.40;88.60
53962;DHT22;39868;53.398;6.564;2024-02-28T05:11:05;6.30;88.60
53962;DHT22;39868;53.398;6.564;2024-02-28T05:13:32;6.40;88.60
53962;DHT22;39868;53.398;6.564;2024-02-28T05:15:59;6.40;88.60
53962;DHT22;39868;53.398;6.564;2024-02-28T05:18:27;6.40;88.60
53962;DHT22;39868;53.398;6.564;2024-02-28T05:20:54;6.40;88.60
53962;DHT22;39868;53.398;6.564;2024-02-28T05:23:21;6.40;88.60
53962;DHT22;39868;53.398;6.564;2024-02-28T05:25:50;6.50;88.60
53962;DHT22;39868;53.398;6.564;2024-02-28T05:28:17;6.50;88.60
53962;DHT22;39868;53.398;6.564;2024-02-28T05:30:44;6.50;88.60
53962;DHT22;39868;53.398;6.564;2024-02-28T05:33:16;6.50;88.60
53962;DHT22;39868;53.398;6.564;2024-02-28T05:35:45;6.60;88.60
53962;DHT22;39868;53.398;6.564;2024-02-28T05:38:12;6.60;88.60
53962;DHT22;39868;53.398;6.564;2024-02-28T05:40:41;6.60;88.60
53962;DHT22;39868;53.398;6.564;2024-02-28T05:43:08;6.60;88.60
53962;DHT22;39868;53.398;6.564;2024-02-28T05:45:35;6.70;88.60
53962;DHT22;39868;53.398;6.564;2024-02-28T05:48:03;6.70;88.60
53962;DHT22;39868;53.398;6.564;2024-02-28T05:50:30;6.70;88.60
53962;DHT22;39868;53.398;6.564;2024-02-28T05:52:59;6.70;88.60
53962;DHT22;39868;53.398;6.564;2024-02-28T05:55:26;6.70;88.50
53962;DHT22;39868;53.398;6.564;2024-02-28T05:57:56;6.80;88.60
53962;DHT22;39868;53.398;6.564;2024-02-28T06:00:23;6.80;88.60
53962;DHT22;39868;53.398;6.564;2024-02-28T06:02:50;6.80;88.50
53962;DHT22;39868;53.398;6.564;2024-02-28T06:05:17;6.80;88.50
53962;DHT22;39868;53.398;6.564;2024-02-28T06:07:45;6.80;88.60
53962;DHT22;39868;53.398;6.564;2024-02-28T06:10:12;6.90;88.70
53962;DHT22;39868;53.398;6.564;2024-02-28T06:12:39;6.80;88.50
53962;DHT22;39868;53.398;6.564;2024-02-28T06:15:06;6.80;88.60
53962;DHT22;39868;53.398;6.564;2024-02-28T06:17:34;6.90;88.60
53962;DHT22;39868;53.398;6.564;2024-02-28T06:20:01;6.90;88.60
53962;DHT22;39868;53.398;6.564;2024-02-28T06:22:28;6.90;88.70
53962;DHT22;39868;53.398;6.564;2024-02-28T06:24:55;6.90;88.60
53962;DHT22;39868;53.398;6.564;2024-02-28T06:27:23;6.90;88.60
53962;DHT22;39868;53.398;6.564;2024-02-28T06:29:51;7.00;88.70
53962;DHT22;39868;53.398;6.564;2024-02-28T06:32:18;7.00;88.70
53962;DHT22;39868;53.398;6.564;2024-02-28T06:34:46;7.00;88.70
53962;DHT22;39868;53.398;6.564;2024-02-28T06:37:14;7.00;88.70
53962;DHT22;39868;53.398;6.564;2024-02-28T06:39:41;7.00;88.70
53962;DHT22;39868;53.398;6.564;2024-02-28T06:42:09;7.00;88.70
53962;DHT22;39868;53.398;6.564;2024-02-28T06:44:36;7.10;88.90
53962;DHT22;39868;53.398;6.564;2024-02-28T06:47:03;7.10;88.80
53962;DHT22;39868;53.398;6.564;2024-02-28T06:49:31;7.10;88.90
53962;DHT22;39868;53.398;6.564;2024-02-28T06:51:58;7.10;88.90
53962;DHT22;39868;53.398;6.564;2024-02-28T06:54:28;7.10;88.90
53962;DHT22;39868;53.398;6.564;2024-02-28T06:56:57;7.20;89.00
53962;DHT22;39868;53.398;6.564;2024-02-28T06:59:24;7.20;88.90
53962;DHT22;39868;53.398;6.564;2024-02-28T07:01:51;7.20;88.90
53962;DHT22;39868;53.398;6.564;2024-02-28T07:04:18;7.20;88.90
53962;DHT22;39868;53.398;6.564;2024-02-28T07:06:46;7.20;88.90
53962;DHT22;39868;53.398;6.564;2024-02-28T07:09:13;7.20;88.90
53962;DHT22;39868;53.398;6.564;2024-02-28T07:11:42;7.20;89.00
53962;DHT22;39868;53.398;6.564;2024-02-28T07:14:09;7.30;89.00
53962;DHT22;39868;53.398;6.564;2024-02-28T07:16:36;7.30;89.10
53962;DHT22;39868;53.398;6.564;2024-02-28T07:19:04;7.30;89.00
53962;DHT22;39868;53.398;6.564;2024-02-28T07:21:31;7.30;89.00
53962;DHT22;39868;53.398;6.564;2024-02-28T07:23:59;7.30;89.10
53962;DHT22;39868;53.398;6.564;2024-02-28T07:26:26;7.30;89.10
53962;DHT22;39868;53.398;6.564;2024-02-28T07:28:54;7.30;89.00
53962;DHT22;39868;53.398;6.564;2024-02-28T07:31:21;7.40;89.10
53962;DHT22;39868;53.398;6.564;2024-02-28T07:33:49;7.40;89.10
53962;DHT22;39868;53.398;6.564;2024-02-28T07:36:16;7.40;89.10
53962;DHT22;39868;53.398;6.564;2024-02-28T07:38:44;7.40;89.10
53962;DHT22;39868;53.398;6.564;2024-02-28T07:41:11;7.40;89.10
53962;DHT22;39868;53.398;6.564;2024-02-28T07:43:42;7.50;89.20
53962;DHT22;39868;53.398;6.564;2024-02-28T07:46:10;7.50;89.20
53962;DHT22;39868;53.398;6.564;2024-02-28T07:48:38;7.50;89.20
53962;DHT22;39868;53.398;6.564;2024-02-28T07:51:07;7.50;89.20
53962;DHT22;39868;53.398;6.564;2024-02-28T07:53:35;7.60;89.20
53962;DHT22;39868;53.398;6.564;2024-02-28T07:56:02;7.60;89.20
53962;DHT22;39868;53.398;6.564;2024-02-28T07:58:30;7.60;89.20
53962;DHT22;39868;53.398;6.564;2024-02-28T08:00:57;7.70;89.20
53962;DHT22;39868;53.398;6.564;2024-02-28T08:03:24;7.70;89.30
53962;DHT22;39868;53.398;6.564;2024-02-28T08:05:51;7.80;89.40
53962;DHT22;39868;53.398;6.564;2024-02-28T08:08:19;7.80;89.40
53962;DHT22;39868;53.398;6.564;2024-02-28T08:10:46;7.90;89.40
53962;DHT22;39868;53.398;6.564;2024-02-28T08:13:16;7.90;89.40
53962;DHT22;39868;53.398;6.564;2024-02-28T08:15:43;7.90;89.40
53962;DHT22;39868;53.398;6.564;2024-02-28T08:18:11;8.00;89.50
53962;DHT22;39868;53.398;6.564;2024-02-28T08:20:38;8.00;89.50
53962;DHT22;39868;53.398;6.564;2024-02-28T08:23:06;8.10;89.60
53962;DHT22;39868;53.398;6.564;2024-02-28T08:25:33;8.10;89.60
53962;DHT22;39868;53.398;6.564;2024-02-28T08:28:00;8.10;89.50
53962;DHT22;39868;53.398;6.564;2024-02-28T08:30:28;8.20;89.60
53962;DHT22;39868;53.398;6.564;2024-02-28T08:32:55;8.20;89.50
53962;DHT22;39868;53.398;6.564;2024-02-28T08:35:22;8.30;89.50
53962;DHT22;39868;53.398;6.564;2024-02-28T08:37:50;8.30;89.40
53962;DHT22;39868;53.398;6.564;2024-02-28T08:40:18;8.30;89.40
53962;DHT22;39868;53.398;6.564;2024-02-28T08:42:45;8.40;89.30
53962;DHT22;39868;53.398;6.564;2024-02-28T08:45:13;8.40;89.90
53962;DHT22;39868;53.398;6.564;2024-02-28T08:47:41;8.40;89.30
53962;DHT22;39868;53.398;6.564;2024-02-28T08:50:09;8.50;89.30
53962;DHT22;39868;53.398;6.564;2024-02-28T08:52:36;8.50;89.30
53962;DHT22;39868;53.398;6.564;2024-02-28T08:55:04;8.60;89.20
53962;DHT22;39868;53.398;6.564;2024-02-28T08:57:31;8.60;89.20
53962;DHT22;39868;53.398;6.564;2024-02-28T08:59:59;8.70;89.20
53962;DHT22;39868;53.398;6.564;2024-02-28T09:02:26;8.70;89.10
53962;DHT22;39868;53.398;6.564;2024-02-28T09:04:53;8.80;89.00
53962;DHT22;39868;53.398;6.564;2024-02-28T09:07:24;8.90;89.00
53962;DHT22;39868;53.398;6.564;2024-02-28T09:09:51;8.90;88.90
53962;DHT22;39868;53.398;6.564;2024-02-28T09:12:18;8.90;88.90
53962;DHT22;39868;53.398;6.564;2024-02-28T09:14:46;9.00;88.80
53962;DHT22;39868;53.398;6.564;2024-02-28T09:17:14;9.10;88.80
53962;DHT22;39868;53.398;6.564;2024-02-28T09:19:41;9.10;88.70
53962;DHT22;39868;53.398;6.564;2024-02-28T09:22:08;9.20;88.70
53962;DHT22;39868;53.398;6.564;2024-02-28T09:24:38;9.20;88.60
53962;DHT22;39868;53.398;6.564;2024-02-28T09:27:06;9.30;88.50
53962;DHT22;39868;53.398;6.564;2024-02-28T09:29:33;9.30;88.50
53962;DHT22;39868;53.398;6.564;2024-02-28T09:32:01;9.40;88.40
53962;DHT22;39868;53.398;6.564;2024-02-28T09:34:28;9.50;88.40
53962;DHT22;39868;53.398;6.564;2024-02-28T09:36:55;9.60;88.40
53962;DHT22;39868;53.398;6.564;2024-02-28T09:39:23;9.70;88.40
53962;DHT22;39868;53.398;6.564;2024-02-28T09:41:51;9.70;88.40
53962;DHT22;39868;53.398;6.564;2024-02-28T09:44:18;9.80;88.30
53962;DHT22;39868;53.398;6.564;2024-02-28T09:46:50;9.90;88.20
53962;DHT22;39868;53.398;6.564;2024-02-28T09:49:19;10.00;88.10
53962;DHT22;39868;53.398;6.564;2024-02-28T09:51:49;10.00;87.90
53962;DHT22;39868;53.398;6.564;2024-02-28T09:54:19;10.10;87.70
53962;DHT22;39868;53.398;6.564;2024-02-28T09:56:48;10.20;87.60
53962;DHT22;39868;53.398;6.564;2024-02-28T09:59:19;10.20;87.40
53962;DHT22;39868;53.398;6.564;2024-02-28T10:01:57;10.20;87.20
53962;DHT22;39868;53.398;6.564;2024-02-28T10:04:26;10.30;87.10
53962;DHT22;39868;53.398;6.564;2024-02-28T10:06:57;10.30;87.00
53962;DHT22;39868;53.398;6.564;2024-02-28T10:09:24;10.30;86.90
53962;DHT22;39868;53.398;6.564;2024-02-28T10:11:52;10.30;86.70
53962;DHT22;39868;53.398;6.564;2024-02-28T10:14:19;10.40;86.50
53962;DHT22;39868;53.398;6.564;2024-02-28T10:16:46;10.40;86.50
53962;DHT22;39868;53.398;6.564;2024-02-28T10:19:14;10.40;86.60
53962;DHT22;39868;53.398;6.564;2024-02-28T10:21:41;10.40;86.60
53962;DHT22;39868;53.398;6.564;2024-02-28T10:24:12;10.40;86.50
53962;DHT22;39868;53.398;6.564;2024-02-28T10:26:46;10.40;86.40
53962;DHT22;39868;53.398;6.564;2024-02-28T10:29:23;10.40;86.40
53962;DHT22;39868;53.398;6.564;2024-02-28T10:31:55;10.40;86.40
53962;DHT22;39868;53.398;6.564;2024-02-28T10:34:22;10.50;86.60
53962;DHT22;39868;53.398;6.564;2024-02-28T10:36:51;10.50;86.50
53962;DHT22;39868;53.398;6.564;2024-02-28T10:39:19;10.50;86.50
53962;DHT22;39868;53.398;6.564;2024-02-28T10:41:47;10.60;86.70
53962;DHT22;39868;53.398;6.564;2024-02-28T10:44:16;10.60;86.70
53962;DHT22;39868;53.398;6.564;2024-02-28T10:46:44;10.70;86.70
53962;DHT22;39868;53.398;6.564;2024-02-28T10:49:15;10.70;86.60
53962;DHT22;39868;53.398;6.564;2024-02-28T10:51:46;10.70;86.60
53962;DHT22;39868;53.398;6.564;2024-02-28T10:54:15;10.70;86.60
53962;DHT22;39868;53.398;6.564;2024-02-28T10:56:43;10.80;86.60
53962;DHT22;39868;53.398;6.564;2024-02-28T10:59:12;10.90;86.50
53962;DHT22;39868;53.398;6.564;2024-02-28T11:01:45;10.90;86.30
53962;DHT22;39868;53.398;6.564;2024-02-28T11:04:15;10.90;86.30
53962;DHT22;39868;53.398;6.564;2024-02-28T11:06:50;10.90;86.10
53962;DHT22;39868;53.398;6.564;2024-02-28T11:09:25;10.90;86.00
53962;DHT22;39868;53.398;6.564;2024-02-28T11:11:54;10.90;85.90
53962;DHT22;39868;53.398;6.564;2024-02-28T11:14:23;11.00;85.90
53962;DHT22;39868;53.398;6.564;2024-02-28T11:17:04;10.90;85.70
53962;DHT22;39868;53.398;6.564;2024-02-28T11:19:33;11.00;85.70
53962;DHT22;39868;53.398;6.564;2024-02-28T11:22:04;11.00;85.80
53962;DHT22;39868;53.398;6.564;2024-02-28T11:24:34;11.00;85.80
53962;DHT22;39868;53.398;6.564;2024-02-28T11:27:04;11.10;86.00
53962;DHT22;39868;53.398;6.564;2024-02-28T11:29:33;11.10;86.00
53962;DHT22;39868;53.398;6.564;2024-02-28T11:32:01;11.20;86.00
53962;DHT22;39868;53.398;6.564;2024-02-28T11:34:28;11.30;86.60
53962;DHT22;39868;53.398;6.564;2024-02-28T11:36:55;11.40;85.80
53962;DHT22;39868;53.398;6.564;2024-02-28T11:39:23;11.40;85.40
53962;DHT22;39868;53.398;6.564;2024-02-28T11:41:54;11.50;85.30
53962;DHT22;39868;53.398;6.564;2024-02-28T11:44:22;11.50;85.10
53962;DHT22;39868;53.398;6.564;2024-02-28T11:46:49;11.60;85.20
53962;DHT22;39868;53.398;6.564;2024-02-28T11:49:21;11.60;85.10
53962;DHT22;39868;53.398;6.564;2024-02-28T11:51:48;11.70;85.30
53962;DHT22;39868;53.398;6.564;2024-02-28T11:54:16;11.80;85.50
53962;DHT22;39868;53.398;6.564;2024-02-28T11:56:43;11.90;85.40
53962;DHT22;39868;53.398;6.564;2024-02-28T11:59:11;11.90;85.20
53962;DHT22;39868;53.398;6.564;2024-02-28T12:01:43;12.00;84.90
53962;DHT22;39868;53.398;6.564;2024-02-28T12:04:17;12.10;84.90
53962;DHT22;39868;53.398;6.564;2024-02-28T12:06:45;12.20;84.80
53962;DHT22;39868;53.398;6.564;2024-02-28T12:09:13;12.30;84.50
53962;DHT22;39868;53.398;6.564;2024-02-28T12:11:54;12.30;84.10
53962;DHT22;39868;53.398;6.564;2024-02-28T12:14:21;12.40;84.10
53962;DHT22;39868;53.398;6.564;2024-02-28T12:16:49;12.40;84.10
53962;DHT22;39868;53.398;6.564;2024-02-28T12:19:16;12.50;84.00
53962;DHT22;39868;53.398;6.564;2024-02-28T12:21:46;12.50;83.80
53962;DHT22;39868;53.398;6.564;2024-02-28T12:24:14;12.50;83.70
53962;DHT22;39868;53.398;6.564;2024-02-28T12:26:41;12.50;83.30
53962;DHT22;39868;53.398;6.564;2024-02-28T12:29:08;12.50;83.50
53962;DHT22;39868;53.398;6.564;2024-02-28T12:31:39;12.50;83.00
53962;DHT22;39868;53.398;6.564;2024-02-28T12:34:09;12.50;83.10
53962;DHT22;39868;53.398;6.564;2024-02-28T12:36:44;12.50;82.70
53962;DHT22;39868;53.398;6.564;2024-02-28T12:39:13;12.40;82.60
53962;DHT22;39868;53.398;6.564;2024-02-28T12:41:40;12.40;82.50
53962;DHT22;39868;53.398;6.564;2024-02-28T12:44:08;12.30;82.50
53962;DHT22;39868;53.398;6.564;2024-02-28T12:47:07;12.30;82.80
53962;DHT22;39868;53.398;6.564;2024-02-28T12:53:27;12.10;83.00
53962;DHT22;39868;53.398;6.564;2024-02-28T12:55:58;12.10;83.10
53962;DHT22;39868;53.398;6.564;2024-02-28T12:58:33;12.00;83.00
53962;DHT22;39868;53.398;6.564;2024-02-28T13:01:11;12.00;83.10
53962;DHT22;39868;53.398;6.564;2024-02-28T13:03:56;11.90;83.20
53962;DHT22;39868;53.398;6.564;2024-02-28T13:06:27;11.90;83.40
53962;DHT22;39868;53.398;6.564;2024-02-28T13:08:55;11.90;83.50
53962;DHT22;39868;53.398;6.564;2024-02-28T13:11:23;11.90;83.60
53962;DHT22;39868;53.398;6.564;2024-02-28T13:13:52;11.90;83.60
53962;DHT22;39868;53.398;6.564;2024-02-28T13:16:23;11.90;83.70
53962;DHT22;39868;53.398;6.564;2024-02-28T13:18:53;11.90;83.80
53962;DHT22;39868;53.398;6.564;2024-02-28T13:21:22;11.80;83.80
53962;DHT22;39868;53.398;6.564;2024-02-28T13:23:50;11.90;83.90
53962;DHT22;39868;53.398;6.564;2024-02-28T13:26:18;11.80;83.90
53962;DHT22;39868;53.398;6.564;2024-02-28T13:28:46;11.90;83.90
53962;DHT22;39868;53.398;6.564;2024-02-28T13:31:18;11.90;83.80
53962;DHT22;39868;53.398;6.564;2024-02-28T13:33:45;11.90;83.90
53962;DHT22;39868;53.398;6.564;2024-02-28T13:36:12;11.90;83.80
53962;DHT22;39868;53.398;6.564;2024-02-28T13:38:39;11.90;83.60
53962;DHT22;39868;53.398;6.564;2024-02-28T13:41:09;11.90;83.60
53962;DHT22;39868;53.398;6.564;2024-02-28T13:43:37;11.90;83.50
53962;DHT22;39868;53.398;6.564;2024-02-28T13:46:04;11.90;83.40
53962;DHT22;39868;53.398;6.564;2024-02-28T13:48:32;11.90;83.50
53962;DHT22;39868;53.398;6.564;2024-02-28T13:51:00;11.90;83.30
53962;DHT22;39868;53.398;6.564;2024-02-28T13:53:29;11.90;83.30
53962;DHT22;39868;53.398;6.564;2024-02-28T13:55:59;11.90;83.60
53962;DHT22;39868;53.398;6.564;2024-02-28T13:58:26;11.90;83.70
53962;DHT22;39868;53.398;6.564;2024-02-28T14:01:06;12.00;83.90
53962;DHT22;39868;53.398;6.564;2024-02-28T14:03:34;12.00;83.60
53962;DHT22;39868;53.398;6.564;2024-02-28T14:06:01;12.00;83.60
53962;DHT22;39868;53.398;6.564;2024-02-28T14:08:29;12.10;83.80
53962;DHT22;39868;53.398;6.564;2024-02-28T14:11:02;12.30;83.90
53962;DHT22;39868;53.398;6.564;2024-02-28T14:13:29;12.10;83.90
53962;DHT22;39868;53.398;6.564;2024-02-28T14:15:56;12.20;83.70
53962;DHT22;39868;53.398;6.564;2024-02-28T14:18:23;12.30;83.70
53962;DHT22;39868;53.398;6.564;2024-02-28T14:20:51;12.30;83.70
53962;DHT22;39868;53.398;6.564;2024-02-28T14:23:18;12.30;83.70
53962;DHT22;39868;53.398;6.564;2024-02-28T14:25:45;12.40;83.60
53962;DHT22;39868;53.398;6.564;2024-02-28T14:28:13;12.40;83.30
53962;DHT22;39868;53.398;6.564;2024-02-28T14:30:40;12.40;83.40
53962;DHT22;39868;53.398;6.564;2024-02-28T14:33:09;12.40;83.20
53962;DHT22;39868;53.398;6.564;2024-02-28T14:35:40;12.40;82.90
53962;DHT22;39868;53.398;6.564;2024-02-28T14:38:08;12.40;82.80
53962;DHT22;39868;53.398;6.564;2024-02-28T14:40:35;12.30;82.90
53962;DHT22;39868;53.398;6.564;2024-02-28T14:43:02;12.30;82.90
53962;DHT22;39868;53.398;6.564;2024-02-28T14:45:30;12.30;82.80
53962;DHT22;39868;53.398;6.564;2024-02-28T14:47:59;12.30;82.80
53962;DHT22;39868;53.398;6.564;2024-02-28T14:50:26;12.30;82.90
53962;DHT22;39868;53.398;6.564;2024-02-28T14:52:54;12.30;82.90
53962;DHT22;39868;53.398;6.564;2024-02-28T14:55:21;12.30;83.00
53962;DHT22;39868;53.398;6.564;2024-02-28T14:57:49;12.30;83.10
53962;DHT22;39868;53.398;6.564;2024-02-28T15:00:18;12.30;83.00
53962;DHT22;39868;53.398;6.564;2024-02-28T15:02:46;12.30;82.90
53962;DHT22;39868;53.398;6.564;2024-02-28T15:05:13;12.30;82.80
53962;DHT22;39868;53.398;6.564;2024-02-28T15:07:41;12.30;82.90
53962;DHT22;39868;53.398;6.564;2024-02-28T15:10:08;12.30;82.80
53962;DHT22;39868;53.398;6.564;2024-02-28T15:12:36;12.40;82.70
53962;DHT22;39868;53.398;6.564;2024-02-28T15:15:04;12.40;82.60
53962;DHT22;39868;53.398;6.564;2024-02-28T15:17:33;12.30;82.40
53962;DHT22;39868;53.398;6.564;2024-02-28T15:20:00;12.30;82.40
53962;DHT22;39868;53.398;6.564;2024-02-28T15:22:31;12.30;82.50
53962;DHT22;39868;53.398;6.564;2024-02-28T15:25:00;12.30;82.40
53962;DHT22;39868;53.398;6.564;2024-02-28T15:27:28;12.30;82.50
53962;DHT22;39868;53.398;6.564;2024-02-28T15:29:56;12.20;82.40
53962;DHT22;39868;53.398;6.564;2024-02-28T15:32:23;12.20;82.50
53962;DHT22;39868;53.398;6.564;2024-02-28T15:34:50;12.20;82.50
53962;DHT22;39868;53.398;6.564;2024-02-28T15:37:18;12.20;82.50
53962;DHT22;39868;53.398;6.564;2024-02-28T15:39:46;12.10;82.40
53962;DHT22;39868;53.398;6.564;2024-02-28T15:42:13;12.10;82.40
53962;DHT22;39868;53.398;6.564;2024-02-28T15:44:49;12.10;82.50
53962;DHT22;39868;53.398;6.564;2024-02-28T15:47:16;12.00;82.50
53962;DHT22;39868;53.398;6.564;2024-02-28T15:49:43;11.90;82.50